createdAt,value
2018-07-23T00:02:12.148Z,83.84
2018-07-23T00:04:39.969Z,83.61
2018-07-23T00:07:07.805Z,84.52
2018-07-23T00:09:35.669Z,84.38
2018-07-23T00:12:03.566Z,84.24
2018-07-23T00:14:31.385Z,84.48
2018-07-23T00:16:59.230Z,84.27
2018-07-23T00:19:27.065Z,83.76
2018-07-23T00:21:54.940Z,82.54
2018-07-23T00:24:22.782Z,83.19
2018-07-23T00:26:50.639Z,83.43
2018-07-23T00:29:18.533Z,84.03
2018-07-23T00:31:46.418Z,84.38
2018-07-23T00:34:14.261Z,84.14
2018-07-23T00:36:42.091Z,84.90
2018-07-23T00:39:10.391Z,84.14
2018-07-23T00:41:38.345Z,84.13
2018-07-23T00:44:06.264Z,83.85
2018-07-23T00:46:34.114Z,84.43
2018-07-23T00:49:01.966Z,84.86
2018-07-23T00:51:29.861Z,84.53
2018-07-23T00:53:57.682Z,82.55
2018-07-23T00:56:25.512Z,82.60
2018-07-23T00:58:53.354Z,80.67
2018-07-23T01:01:21.173Z,81.23
2018-07-23T01:03:49.001Z,80.29
2018-07-23T01:06:16.825Z,79.82
2018-07-23T01:08:44.665Z,80.24
2018-07-23T01:11:12.477Z,80.29
2018-07-23T01:13:40.321Z,80.69
2018-07-23T01:16:08.137Z,81.04
2018-07-23T01:18:35.977Z,79.67
2018-07-23T01:21:03.846Z,78.02
2018-07-23T01:23:31.673Z,75.88
2018-07-23T01:25:59.517Z,75.46
2018-07-23T01:28:27.381Z,72.76
2018-07-23T01:30:55.267Z,74.78
2018-07-23T01:33:23.366Z,77.78
2018-07-23T01:35:51.221Z,77.33
2018-07-23T01:38:19.114Z,76.01
2018-07-23T01:40:46.942Z,70.91
2018-07-23T01:43:14.785Z,66.26
2018-07-23T01:45:42.689Z,70.73
2018-07-23T01:48:10.538Z,71.20
2018-07-23T01:50:38.388Z,73.70
2018-07-23T01:53:06.290Z,75.20
2018-07-23T01:55:34.188Z,75.57
2018-07-23T01:58:02.060Z,74.23
2018-07-23T02:00:29.982Z,74.12
2018-07-23T02:02:57.866Z,74.73
2018-07-23T02:05:25.722Z,74.08
2018-07-23T02:07:53.583Z,74.73
2018-07-23T02:10:21.433Z,74.43
2018-07-23T02:12:49.269Z,74.44
2018-07-23T02:15:17.134Z,75.12
2018-07-23T02:17:44.994Z,76.34
2018-07-23T02:20:12.835Z,75.81
2018-07-23T02:22:40.662Z,75.25
2018-07-23T02:25:08.473Z,77.27
2018-07-23T02:27:36.305Z,77.51
2018-07-23T02:30:04.290Z,78.17
2018-07-23T02:32:32.129Z,79.02
2018-07-23T02:35:00.225Z,78.48
2018-07-23T02:37:28.049Z,78.09
2018-07-23T02:39:55.901Z,78.25
2018-07-23T02:42:23.745Z,78.28
2018-07-23T02:44:51.570Z,80.68
2018-07-23T02:47:19.404Z,81.22
2018-07-23T02:49:47.252Z,81.14
2018-07-23T02:52:15.123Z,81.56
2018-07-23T02:54:42.969Z,81.96
2018-07-23T02:57:10.811Z,81.28
2018-07-23T02:59:38.648Z,80.74
2018-07-23T03:02:06.498Z,80.75
2018-07-23T03:04:34.308Z,80.37
2018-07-23T03:07:02.194Z,80.57
2018-07-23T03:09:30.105Z,80.45
2018-07-23T03:11:57.937Z,79.41
2018-07-23T03:14:25.756Z,79.58
2018-07-23T03:16:53.633Z,80.13
2018-07-23T03:19:21.485Z,78.75
2018-07-23T03:21:49.423Z,78.11
2018-07-23T03:24:17.225Z,77.13
2018-07-23T03:26:45.109Z,77.17
2018-07-23T03:29:13.041Z,77.26
2018-07-23T03:34:08.105Z,77.42
2018-07-23T03:36:35.892Z,77.28
2018-07-23T03:39:05.699Z,77.15
2018-07-23T03:41:33.473Z,76.82
2018-07-23T03:44:01.265Z,76.58
2018-07-23T03:46:29.125Z,76.11
2018-07-23T03:48:56.907Z,76.67
2018-07-23T03:51:24.742Z,76.12
2018-07-23T03:53:53.010Z,75.61
2018-07-23T03:56:20.907Z,72.79
2018-07-23T03:58:48.806Z,73.33
2018-07-23T04:01:17.418Z,72.24
2018-07-23T04:03:45.237Z,72.78
2018-07-23T04:06:13.094Z,71.69
2018-07-23T04:08:40.945Z,71.56
2018-07-23T04:11:08.867Z,71.33
2018-07-23T04:13:36.700Z,70.63
2018-07-23T04:16:04.824Z,71.09
2018-07-23T04:18:32.639Z,69.39
2018-07-23T04:21:00.483Z,69.19
2018-07-23T04:23:28.321Z,70.25
2018-07-23T04:25:56.146Z,69.45
2018-07-23T04:28:24.059Z,67.88
2018-07-23T04:30:52.166Z,66.40
2018-07-23T04:33:19.992Z,53.74
2018-07-23T04:35:47.806Z,44.10
2018-07-23T04:38:15.653Z,35.22
2018-07-23T04:40:43.493Z,32.56
2018-07-23T04:43:11.306Z,29.76
2018-07-23T04:45:39.132Z,29.83
2018-07-23T04:48:06.949Z,34.00
2018-07-23T04:50:34.771Z,32.70
2018-07-23T04:53:02.642Z,31.92
2018-07-23T04:55:30.471Z,32.01
2018-07-23T04:57:58.293Z,31.31
2018-07-23T05:00:26.121Z,28.82
2018-07-23T05:02:53.956Z,28.18
2018-07-23T05:05:21.748Z,30.27
2018-07-23T05:07:49.558Z,38.44
2018-07-23T05:10:17.627Z,39.43
2018-07-23T05:12:45.406Z,40.17
2018-07-23T05:15:13.303Z,40.94
2018-07-23T05:17:41.116Z,44.42
2018-07-23T05:20:08.977Z,45.08
2018-07-23T05:22:37.381Z,47.02
2018-07-23T05:25:05.200Z,50.73
2018-07-23T05:27:33.014Z,49.27
2018-07-23T05:30:00.882Z,50.04
2018-07-23T05:32:28.720Z,53.50
2018-07-23T05:34:56.585Z,50.67
2018-07-23T05:37:24.474Z,45.13
2018-07-23T05:39:52.324Z,41.15
2018-07-23T05:42:20.222Z,39.16
2018-07-23T05:44:48.053Z,38.92
2018-07-23T05:47:15.877Z,37.09
2018-07-23T05:49:43.722Z,36.86
2018-07-23T05:52:11.553Z,33.41
2018-07-23T05:54:39.381Z,36.83
2018-07-23T05:57:07.544Z,34.73
2018-07-23T05:59:35.382Z,32.59
2018-07-23T06:02:03.269Z,31.80
2018-07-23T06:04:31.142Z,30.71
2018-07-23T06:06:59.074Z,29.30
2018-07-23T06:09:26.884Z,30.73
2018-07-23T06:11:54.714Z,30.67
2018-07-23T06:14:22.831Z,29.70
2018-07-23T06:16:50.693Z,37.96
2018-07-23T06:19:18.549Z,40.99
2018-07-23T06:21:46.423Z,45.65
2018-07-23T06:24:14.287Z,48.04
2018-07-23T06:26:42.106Z,50.42
2018-07-23T06:29:09.998Z,47.64
2018-07-23T06:31:37.826Z,52.92
2018-07-23T06:34:05.741Z,53.57
2018-07-23T06:36:33.790Z,53.85
2018-07-23T06:39:01.648Z,51.24
2018-07-23T06:41:29.614Z,50.19
2018-07-23T06:43:57.533Z,42.19
2018-07-23T06:46:25.374Z,38.21
2018-07-23T06:48:53.251Z,39.04
2018-07-23T06:51:21.077Z,41.74
2018-07-23T06:53:48.895Z,39.05
2018-07-23T06:56:16.767Z,37.06
2018-07-23T06:58:44.621Z,36.04
2018-07-23T07:01:12.508Z,39.10
2018-07-23T07:03:40.370Z,42.20
2018-07-23T07:06:08.238Z,43.22
2018-07-23T07:08:36.169Z,43.10
2018-07-23T07:11:04.147Z,40.83
2018-07-23T07:13:32.064Z,40.69
2018-07-23T07:15:59.957Z,39.30
2018-07-23T07:18:28.152Z,38.33
2018-07-23T07:20:55.977Z,37.65
2018-07-23T07:23:23.819Z,39.19
2018-07-23T07:25:51.703Z,39.73
2018-07-23T07:28:19.531Z,42.05
2018-07-23T07:30:47.389Z,40.98
2018-07-23T07:33:15.261Z,38.21
2018-07-23T07:35:43.122Z,37.52
2018-07-23T07:38:11.065Z,37.00
2018-07-23T07:40:39.529Z,37.53
2018-07-23T07:43:07.436Z,35.70
2018-07-23T07:45:35.306Z,38.09
2018-07-23T07:48:03.213Z,43.61
2018-07-23T07:50:31.202Z,41.79
2018-07-23T07:52:59.081Z,42.85
2018-07-23T07:55:26.929Z,40.61
2018-07-23T07:57:54.992Z,40.96
2018-07-23T08:00:22.882Z,41.88
2018-07-23T08:02:50.758Z,40.52
2018-07-23T08:05:18.794Z,41.79
2018-07-23T08:07:46.982Z,40.96
2018-07-23T08:10:14.955Z,39.34
2018-07-23T08:12:42.886Z,39.22
2018-07-23T08:15:10.769Z,38.71
2018-07-23T08:17:38.663Z,37.20
2018-07-23T08:20:06.611Z,36.35
2018-07-23T08:22:34.631Z,35.80
2018-07-23T08:25:02.477Z,36.30
2018-07-23T08:27:30.350Z,36.38
2018-07-23T08:29:58.178Z,35.54
2018-07-23T08:32:26.152Z,35.36
2018-07-23T08:34:53.986Z,38.36
2018-07-23T08:37:21.859Z,38.17
2018-07-23T08:39:49.799Z,38.93
2018-07-23T08:42:17.691Z,39.69
2018-07-23T08:44:45.562Z,38.46
2018-07-23T08:47:13.420Z,38.82
2018-07-23T08:49:41.751Z,40.70
2018-07-23T08:52:09.632Z,41.02
2018-07-23T08:54:37.466Z,41.34
2018-07-23T08:57:05.380Z,39.83
2018-07-23T08:59:33.276Z,41.59
2018-07-23T09:02:01.108Z,40.68
2018-07-23T09:04:28.997Z,40.56
2018-07-23T09:06:56.886Z,43.04
2018-07-23T09:09:24.718Z,42.48
2018-07-23T09:11:52.541Z,41.34
2018-07-23T09:14:21.157Z,40.59
2018-07-23T09:16:49.060Z,39.73
2018-07-23T09:19:16.921Z,37.56
2018-07-23T09:21:44.805Z,36.73
2018-07-23T09:24:12.667Z,38.74
2018-07-23T09:26:40.511Z,38.13
2018-07-23T09:29:08.388Z,41.08
2018-07-23T09:31:36.242Z,40.64
2018-07-23T09:34:09.629Z,41.75
2018-07-23T09:36:37.737Z,41.24
2018-07-23T09:39:08.062Z,40.61
2018-07-23T09:41:35.964Z,39.88
2018-07-23T09:44:03.871Z,38.31
2018-07-23T09:46:31.726Z,37.80
2018-07-23T09:48:59.567Z,40.26
2018-07-23T09:51:27.418Z,40.42
2018-07-23T09:53:55.317Z,45.25
2018-07-23T09:56:23.179Z,44.02
2018-07-23T09:58:51.092Z,44.72
2018-07-23T10:01:19.467Z,42.59
2018-07-23T10:03:47.679Z,41.92
2018-07-23T10:06:15.577Z,43.05
2018-07-23T10:08:43.489Z,47.87
2018-07-23T10:11:11.346Z,46.54
2018-07-23T10:13:39.192Z,45.59
2018-07-23T10:16:07.098Z,44.27
2018-07-23T10:18:34.932Z,43.71
2018-07-23T10:21:02.841Z,46.82
2018-07-23T10:23:30.734Z,49.77
2018-07-23T10:25:58.593Z,50.60
2018-07-23T10:28:26.573Z,49.68
2018-07-23T10:30:54.478Z,50.60
2018-07-23T10:33:22.322Z,50.29
2018-07-23T10:35:50.196Z,50.34
2018-07-23T10:38:18.070Z,46.79
2018-07-23T10:40:45.910Z,44.51
2018-07-23T10:43:13.738Z,44.62
2018-07-23T10:45:41.605Z,39.91
2018-07-23T10:48:09.465Z,39.61
2018-07-23T10:50:37.313Z,39.71
2018-07-23T10:53:05.169Z,42.87
2018-07-23T10:55:33.005Z,42.26
2018-07-23T10:58:00.835Z,39.00
2018-07-23T11:00:28.715Z,38.61
2018-07-23T11:02:56.605Z,36.82
2018-07-23T11:05:24.459Z,37.29
2018-07-23T11:07:52.310Z,35.88
2018-07-23T11:10:21.018Z,34.41
2018-07-23T11:12:48.926Z,36.63
2018-07-23T11:15:16.761Z,36.03
2018-07-23T11:17:44.609Z,41.13
2018-07-23T11:20:12.726Z,39.49
2018-07-23T11:22:41.060Z,40.89
2018-07-23T11:25:38.595Z,45.11
2018-07-23T11:27:36.805Z,46.33
2018-07-23T11:30:05.317Z,42.20
2018-07-23T11:32:33.606Z,42.34
2018-07-23T11:35:01.565Z,42.55
2018-07-23T11:37:29.513Z,41.35
2018-07-23T11:39:57.368Z,42.10
2018-07-23T11:42:25.173Z,40.74
2018-07-23T11:44:53.026Z,41.28
2018-07-23T11:47:20.840Z,44.82
2018-07-23T11:49:48.697Z,45.48
2018-07-23T11:52:16.562Z,45.32
2018-07-23T11:54:44.369Z,44.91
2018-07-23T11:57:12.553Z,47.76
2018-07-23T11:59:40.381Z,48.06
2018-07-23T12:02:08.555Z,46.78
2018-07-23T12:04:36.530Z,48.30
2018-07-23T12:07:04.926Z,50.29
2018-07-23T12:09:32.774Z,52.05
2018-07-23T12:12:00.626Z,52.74
2018-07-23T12:14:28.482Z,56.00
2018-07-23T12:16:56.720Z,63.70
2018-07-23T12:19:24.561Z,65.94
2018-07-23T12:21:52.365Z,67.69
2018-07-23T12:24:20.213Z,72.08
2018-07-23T12:26:48.050Z,74.83
2018-07-23T12:29:15.885Z,72.86
2018-07-23T12:31:43.735Z,73.06
2018-07-23T12:34:11.555Z,71.94
2018-07-23T12:36:39.381Z,72.93
2018-07-23T12:39:09.557Z,74.75
2018-07-23T12:41:37.431Z,72.29
2018-07-23T12:44:05.270Z,72.67
2018-07-23T12:46:33.262Z,73.56
2018-07-23T12:49:01.089Z,72.42
2018-07-23T12:51:28.952Z,70.56
2018-07-23T12:53:56.805Z,67.49
2018-07-23T12:56:24.715Z,68.45
2018-07-23T12:58:52.569Z,68.33
2018-07-23T13:01:20.405Z,68.75
2018-07-23T13:03:48.253Z,63.25
2018-07-23T13:06:16.089Z,63.52
2018-07-23T13:08:43.969Z,60.04
2018-07-23T13:11:11.869Z,58.68
2018-07-23T13:13:39.709Z,54.36
2018-07-23T13:16:07.600Z,55.74
2018-07-23T13:18:35.828Z,60.23
2018-07-23T13:21:03.768Z,58.01
2018-07-23T13:23:31.645Z,56.60
2018-07-23T13:25:59.498Z,57.55
2018-07-23T13:28:27.375Z,55.10
2018-07-23T13:30:55.238Z,52.13
2018-07-23T13:33:23.049Z,55.99
2018-07-23T13:35:50.877Z,57.76
2018-07-23T13:38:18.802Z,56.28
2018-07-23T13:40:46.659Z,54.67
2018-07-23T13:43:14.521Z,53.51
2018-07-23T13:45:42.373Z,52.23
2018-07-23T13:48:10.272Z,48.99
2018-07-23T13:50:38.153Z,48.64
2018-07-23T13:53:06.150Z,48.93
2018-07-23T13:55:34.375Z,48.04
2018-07-23T13:58:02.262Z,46.38
2018-07-23T14:00:30.584Z,47.20
2018-07-23T14:02:58.470Z,49.89
2018-07-23T14:05:26.390Z,53.02
2018-07-23T14:07:54.256Z,51.04
2018-07-23T14:10:22.135Z,48.54
2018-07-23T14:12:49.998Z,47.00
2018-07-23T14:15:17.896Z,45.00
2018-07-23T14:17:45.754Z,46.84
2018-07-23T14:20:13.629Z,47.00
2018-07-23T14:22:41.502Z,49.91
2018-07-23T14:25:09.358Z,53.06
2018-07-23T14:27:37.227Z,52.00
2018-07-23T14:30:05.230Z,53.68
2018-07-23T14:32:33.167Z,53.77
2018-07-23T14:35:01.054Z,55.36
2018-07-23T14:37:28.920Z,55.31
2018-07-23T14:39:56.840Z,57.20
2018-07-23T14:42:24.761Z,58.34
2018-07-23T14:44:52.658Z,58.83
2018-07-23T14:47:20.573Z,59.58
2018-07-23T14:49:48.557Z,60.44
2018-07-23T14:52:16.472Z,61.63
2018-07-23T14:54:44.357Z,60.18
2018-07-23T14:57:12.249Z,60.02
2018-07-23T14:59:40.174Z,59.31
2018-07-23T15:02:08.071Z,61.38
2018-07-23T15:04:35.950Z,60.34
2018-07-23T15:07:03.986Z,60.61
2018-07-23T15:09:31.869Z,59.89
2018-07-23T15:11:59.833Z,60.36
2018-07-23T15:14:27.697Z,56.37
2018-07-23T15:16:55.583Z,54.68
2018-07-23T15:19:23.457Z,55.80
2018-07-23T15:21:51.354Z,56.74
2018-07-23T15:24:19.441Z,57.45
2018-07-23T15:26:47.662Z,59.19
2018-07-23T15:29:16.539Z,60.70
2018-07-23T15:31:44.454Z,60.91
2018-07-23T15:34:12.351Z,59.40
2018-07-23T15:36:40.627Z,59.09
2018-07-23T15:39:10.069Z,58.45
2018-07-23T15:41:38.316Z,59.03
2018-07-23T15:44:06.338Z,60.36
2018-07-23T15:46:34.217Z,62.09
2018-07-23T15:49:02.105Z,61.22
2018-07-23T15:51:29.968Z,60.58
2018-07-23T15:53:58.305Z,60.12
2018-07-23T15:56:26.301Z,59.03
2018-07-23T15:58:54.610Z,59.17
2018-07-23T16:01:22.591Z,59.53
2018-07-23T16:03:50.485Z,59.13
2018-07-23T16:06:18.428Z,59.53
2018-07-23T16:08:46.342Z,59.37
2018-07-23T16:11:14.683Z,59.55
2018-07-23T16:13:42.549Z,60.48
2018-07-23T16:16:10.405Z,59.79
2018-07-23T16:18:38.281Z,60.65
2018-07-23T16:21:06.243Z,61.99
2018-07-23T16:23:34.160Z,61.25
2018-07-23T16:26:02.042Z,61.09
2018-07-23T16:28:29.918Z,61.30
2018-07-23T16:30:57.833Z,61.41
2018-07-23T16:33:25.827Z,60.83
2018-07-23T16:35:53.698Z,61.58
2018-07-23T16:38:21.619Z,62.15
2018-07-23T16:40:49.874Z,63.19
2018-07-23T16:43:17.764Z,62.60
2018-07-23T16:45:45.698Z,63.81
2018-07-23T16:48:13.594Z,63.66
2018-07-23T16:50:41.509Z,64.34
2018-07-23T16:53:09.645Z,66.36
2018-07-23T16:55:37.525Z,67.01
2018-07-23T16:58:05.448Z,65.81
2018-07-23T17:00:33.614Z,65.47
2018-07-23T17:03:01.453Z,65.37
2018-07-23T17:05:29.342Z,68.02
2018-07-23T17:07:57.199Z,71.59
2018-07-23T17:10:25.201Z,74.59
2018-07-23T17:12:53.048Z,78.99
2018-07-23T17:15:20.879Z,79.21
2018-07-23T17:17:48.823Z,80.70
2018-07-23T17:20:16.681Z,77.84
2018-07-23T17:22:44.529Z,78.58
2018-07-23T17:25:12.367Z,78.29
2018-07-23T17:27:40.286Z,79.26
2018-07-23T17:30:08.205Z,78.51
2018-07-23T17:32:36.027Z,79.76
2018-07-23T17:35:03.941Z,79.40
2018-07-23T17:37:31.817Z,79.39
2018-07-23T17:39:59.654Z,80.23
2018-07-23T17:42:27.532Z,80.82
2018-07-23T17:44:55.417Z,80.46
2018-07-23T17:47:23.282Z,79.98
2018-07-23T17:49:51.156Z,80.05
2018-07-23T17:52:18.994Z,80.81
2018-07-23T17:54:46.875Z,80.97
2018-07-23T17:57:14.755Z,82.00
2018-07-23T17:59:42.607Z,80.80
2018-07-23T18:02:10.484Z,81.91
2018-07-23T18:04:38.318Z,81.45
2018-07-23T18:07:06.222Z,81.50
2018-07-23T18:09:34.154Z,80.60
2018-07-23T18:12:01.997Z,79.36
2018-07-23T18:14:29.863Z,79.56
2018-07-23T18:16:57.698Z,79.81
2018-07-23T18:19:25.587Z,79.74
2018-07-23T18:21:53.445Z,79.36
2018-07-23T18:24:21.292Z,78.34
2018-07-23T18:26:49.193Z,77.80
2018-07-23T18:29:17.100Z,77.41
2018-07-23T18:31:44.980Z,78.10
2018-07-23T18:34:12.849Z,78.21
2018-07-23T18:36:40.761Z,78.65
2018-07-23T18:39:10.481Z,78.74
2018-07-23T18:41:38.541Z,78.09
2018-07-23T18:44:06.679Z,78.14
2018-07-23T18:46:34.569Z,78.98
2018-07-23T18:49:23.847Z,79.68
2018-07-23T18:51:52.749Z,80.91
2018-07-23T18:54:22.638Z,80.35
2018-07-23T18:56:53.224Z,80.38
2018-07-23T18:59:21.324Z,79.72
2018-07-23T19:01:50.201Z,78.65
2018-07-23T19:04:18.255Z,79.36
2018-07-23T19:06:46.237Z,78.50
2018-07-23T19:09:16.449Z,78.14
2018-07-23T19:11:45.385Z,77.45
2018-07-23T19:14:14.056Z,77.24
2018-07-23T19:16:42.345Z,78.99
2018-07-23T19:19:10.395Z,77.60
2018-07-23T19:21:38.343Z,78.13
2018-07-23T19:24:06.297Z,78.35
2018-07-23T19:26:34.238Z,78.40
2018-07-23T19:29:02.190Z,78.65
2018-07-23T19:31:30.333Z,77.36
2018-07-23T19:33:59.324Z,78.89
2018-07-23T19:36:27.412Z,79.22
2018-07-23T19:38:55.897Z,77.25
2018-07-23T19:41:24.310Z,77.55
2018-07-23T19:43:52.566Z,76.52
2018-07-23T19:46:20.576Z,76.16
2018-07-23T19:48:48.461Z,76.43
2018-07-23T19:51:16.389Z,77.23
2018-07-23T19:53:44.301Z,77.12
2018-07-23T19:56:12.270Z,76.16
2018-07-23T19:58:40.941Z,74.07
2018-07-23T20:01:08.951Z,73.07
2018-07-23T20:03:36.836Z,73.64
2018-07-23T20:06:04.784Z,77.08
2018-07-23T20:08:32.696Z,77.68
2018-07-23T20:11:00.644Z,78.03
2018-07-23T20:13:28.565Z,78.28
2018-07-23T20:15:56.957Z,78.32
2018-07-23T20:18:24.908Z,77.99
2018-07-23T20:20:52.993Z,78.66
2018-07-23T20:23:20.972Z,78.84
2018-07-23T20:25:48.905Z,78.13
2018-07-23T20:28:16.832Z,79.66
2018-07-23T20:30:44.723Z,80.25
2018-07-23T20:33:12.621Z,80.46
2018-07-23T20:35:40.560Z,79.80
2018-07-23T20:38:08.575Z,80.35
2018-07-23T20:40:36.550Z,80.01
2018-07-23T20:43:04.530Z,78.64
2018-07-23T20:45:32.465Z,77.87
2018-07-23T20:48:00.338Z,79.22
2018-07-23T20:50:28.527Z,79.87
2018-07-23T20:52:56.441Z,79.22
2018-07-23T20:55:24.313Z,80.08
2018-07-23T20:57:52.168Z,78.28
2018-07-23T21:00:20.101Z,79.34
2018-07-23T21:02:48.002Z,79.84
2018-07-23T21:05:15.887Z,79.61
2018-07-23T21:07:43.751Z,78.81
2018-07-23T21:10:11.688Z,78.85
2018-07-23T21:12:39.568Z,78.51
2018-07-23T21:15:08.167Z,78.89
2018-07-23T21:17:36.008Z,78.52
2018-07-23T21:20:05.479Z,78.23
2018-07-23T21:22:33.376Z,77.94
2018-07-23T21:25:01.528Z,77.80
2018-07-23T21:27:29.385Z,77.67
2018-07-23T21:29:57.283Z,77.16
2018-07-23T21:32:25.156Z,76.63
2018-07-23T21:34:52.983Z,75.88
2018-07-23T21:37:20.848Z,75.37
2018-07-23T21:39:48.740Z,75.55
2018-07-23T21:42:16.628Z,75.75
2018-07-23T21:44:44.531Z,76.45
2018-07-23T21:47:12.370Z,77.85
2018-07-23T21:49:40.226Z,76.96
2018-07-23T21:52:08.088Z,77.07
2018-07-23T21:54:35.951Z,76.82
2018-07-23T21:57:03.820Z,75.71
2018-07-23T21:59:31.653Z,75.18
2018-07-23T22:01:59.584Z,75.52
2018-07-23T22:04:27.431Z,75.34
2018-07-23T22:06:55.291Z,75.71
2018-07-23T22:09:23.157Z,76.07
2018-07-23T22:11:50.972Z,75.82
2018-07-23T22:14:18.909Z,76.05
2018-07-23T22:16:46.779Z,76.85
2018-07-23T22:19:14.594Z,76.43
2018-07-23T22:21:42.434Z,77.41
2018-07-23T22:24:10.246Z,76.78
2018-07-23T22:26:38.161Z,76.54
2018-07-23T22:29:06.065Z,75.26
2018-07-23T22:31:33.942Z,75.30
2018-07-23T22:34:01.780Z,76.66
2018-07-23T22:36:29.645Z,76.40
2018-07-23T22:38:57.593Z,76.56
2018-07-23T22:41:25.424Z,75.94
2018-07-23T22:43:53.233Z,75.65
2018-07-23T22:46:21.141Z,75.86
2018-07-23T22:48:49.294Z,75.16
2018-07-23T22:51:17.153Z,76.02
2018-07-23T22:53:44.969Z,75.56
2018-07-23T22:56:12.809Z,76.47
2018-07-23T22:58:40.676Z,76.72
2018-07-23T23:01:08.604Z,76.04
2018-07-23T23:03:36.461Z,75.83
2018-07-23T23:06:04.343Z,75.34
2018-07-23T23:08:32.226Z,75.82
2018-07-23T23:11:00.121Z,76.46
2018-07-23T23:13:27.979Z,76.22
2018-07-23T23:15:55.845Z,76.24
2018-07-23T23:18:23.702Z,75.83
2018-07-23T23:20:51.546Z,75.50
2018-07-23T23:23:19.397Z,75.00
2018-07-23T23:25:47.267Z,74.33
2018-07-23T23:28:15.101Z,73.58
2018-07-23T23:30:42.949Z,74.11
2018-07-23T23:33:10.795Z,74.35
2018-07-23T23:35:38.646Z,74.61
2018-07-23T23:38:06.494Z,74.95
2018-07-23T23:40:34.382Z,76.46
2018-07-23T23:43:02.270Z,75.53
2018-07-23T23:45:30.097Z,75.97
2018-07-23T23:47:57.924Z,75.85
2018-07-23T23:50:25.757Z,77.07
2018-07-23T23:52:53.593Z,76.04
2018-07-23T23:55:21.417Z,76.93
2018-07-23T23:57:49.217Z,77.11
